METAR Data
IDs: Format: Raw Decoded Include TAF

Data at: 2352 UTC 24 Apr 2019

PADE 242253Z AUTO 12006KT 10SM FEW020 01/M03 A3015 RMK AO2 SLP210 T00111033 TSNO
PADE 242153Z AUTO 12006KT 10SM SCT036 01/M04 A3014 RMK AO2 SLP207 T00111044 TSNO
PADE 242053Z AUTO 10006KT 10SM CLR 00/M04 A3013 RMK AO2 SLP203 T00001044 52013 TSNO
PADE 242002Z AUTO 13004KT 10SM SCT014 BKN047 M01/M03 A3012 RMK AO2 T10061028 TSNO
PADE 241953Z AUTO 10004KT 10SM BKN013 OVC047 M01/M03 A3012 RMK AO2 SLP200 T10061028 TSNO
PADE 241938Z AUTO 07004KT 10SM SCT011 OVC048 M01/M03 A3011 RMK AO2 T10061033 TSNO
PADE 241905Z AUTO 06005KT 10SM BKN011 OVC049 M02/M04 A3010 RMK AO2 T10171039 TSNO
PADE 241853Z AUTO 06005KT 10SM SCT012 OVC050 M02/M04 A3010 RMK AO2 SLP194 T10171039 TSNO
PADE 241753Z AUTO 07005KT 10SM SCT031 M02/M04 A3009 RMK AO2 SLP190 T10221044 11017 21039 51015 TSNO
PADE 241653Z AUTO 02003KT 10SM OVC032 M02/M04 A3008 RMK AO2 SLP186 T10221039 TSNO
PADE 241629Z AUTO 06003KT 10SM SCT016 OVC030 M03/M04 A3007 RMK AO2 T10281044 TSNO
PADE 241553Z AUTO 00000KT 10SM FEW016 OVC028 M03/M04 A3007 RMK AO2 SLP181 T10331044 TSNO
PADE 241453Z AUTO 00000KT 10SM OVC029 M04/M04 A3005 RMK AO2 SLP175 T10391044 51013 TSNO
PADE 241443Z AUTO 00000KT 10SM OVC029 M04/M04 A3004 RMK AO2 T10391044 TSNO
PADE 241353Z AUTO 00000KT 10SM OVC032 M04/M05 A3003 RMK AO2 SLP170 T10391050 TSNO
PADE 241253Z AUTO 00000KT 10SM OVC032 M04/M05 A3002 RMK AO2 SLP167 T10391050 TSNO
PADE 241153Z AUTO 23003KT 10SM OVC035 M04/M04 A3001 RMK AO2 SLP162 T10391044 11033 21067 51017 TSNO
PADE 241104Z AUTO 20005KT 10SM FEW022 OVC034 M04/M04 A3000 RMK AO2 T10441044 TSNO
PADE 241053Z AUTO 20004KT 10SM BKN022 OVC034 M04/M05 A3000 RMK AO2 SLP158 T10441050 TSNO
PADE 240953Z AUTO 17003KT 10SM OVC027 M06/M06 A2998 RMK AO2 SLP151 T10561061 TSNO
PADE 240917Z AUTO 00000KT 10SM OVC029 M06/M06 A2996 RMK AO2 T10561061 TSNO
PADE 240908Z AUTO 00000KT 10SM SCT020 OVC030 M06/M06 A2996 RMK AO2 T10561061 TSNO
PADE 240853Z AUTO 00000KT 10SM BKN020 OVC030 M06/M07 A2996 RMK AO2 SLP145 T10611067 410171067 53020 TSNO
PADE 240833Z AUTO 25003KT 10SM BKN021 M06/M08 A2995 RMK AO2 T10561078 TSNO
PADE 240723Z AUTO 23003KT 10SM SCT022 M05/M06 A2993 RMK AO2 T10501056 TSNO
PADE 240700Z AUTO 18005KT 10SM BKN023 OVC100 M06/M06 A2992 RMK AO2 T10561061 TSNO
PADE 240653Z AUTO 19005KT 10SM SCT024 OVC100 M06/M06 A2992 RMK AO2 SLP131 T10561056 TSNO
PADE 240553Z AUTO 26005KT 10SM FEW024 M03/M05 A2990 RMK AO2 SLP125 T10331050 11017 21033 53015 TSNO
PADE 240453Z AUTO 24004KT 10SM FEW044 M03/M04 A2988 RMK AO2 SLP119 T10281039 TSNO
PADE 240353Z AUTO 26006KT 10SM SCT045 SCT050 BKN110 M02/M04 A2987 RMK AO2 SLP114 T10221039 TSNO
PADE 240253Z AUTO 28005KT 10SM BKN046 M02/M04 A2986 RMK AO2 SLP111 T10221044 53016 TSNO
PADE 240153Z AUTO 28006KT 10SM CLR M02/M04 A2984 RMK AO2 SLP105 T10221044 TSNO
PADE 240053Z AUTO 27007KT 10SM CLR M02/M04 A2983 RMK AO2 SLP100 T10171044 TSNO
PADE 232353Z AUTO 28008KT 10SM CLR M02/M05 A2981 RMK AO2 SLP095 T10221050 11017 21044 51015 TSNO
PADE 232253Z AUTO 27008KT 10SM CLR M02/M05 A2980 RMK AO2 SLP091 T10221050 TSNO
PADE 232153Z AUTO 27009KT 10SM CLR M03/M06 A2978 RMK AO2 SLP086 T10281056 TSNO
PADE 232053Z AUTO 27010KT 10SM CLR M03/M06 A2976 RMK AO2 SLP079 T10331061 53014 TSNO
PADE 231953Z AUTO 28008KT 10SM OVC075 M03/M06 A2975 RMK AO2 SLP075 T10331056 TSNO
PADE 231853Z AUTO 28008KT 10SM SCT070 M04/M06 A2973 RMK AO2 SLP069 T10391061 TSNO
PADE 231753Z AUTO 26010KT 10SM FEW065 BKN110 M04/M06 A2972 RMK AO2 SLP065 T10441061 11044 21056 51018 TSNO
PADE 231653Z AUTO 27008KT 10SM OVC070 M05/M06 A2971 RMK AO2 SLP060 T10501061 TSNO
PADE 231553Z AUTO 27008KT 10SM OVC055 M06/M07 A2969 RMK AO2 SLP055 T10561067 TSNO
PADE 231353Z AUTO 26013KT 10SM OVC090 M05/M06 A2965 RMK AO2 SLP040 T10501056 TSNO
PADE 231253Z AUTO 26014KT 10SM OVC055 M05/M06 A2963 RMK AO2 SLP035 T10501056 TSNO
PADE 231153Z AUTO 27014KT 10SM OVC055 M04/M05 A2962 RMK AO2 SLP031 T10441050 11011 21067 51020 TSNO